Time,TemperatureF,DewpointF,PressureIn,WindDirection,WindDirectionDegrees,WindSpeedMPH,WindSpeedGustMPH,Humidity,HourlyPrecipIn,Conditions,Clouds,dailyrainin,SoftwareType,DateUTC
2013-06-16 00:00:00,68.1,37.9,29.94,WNW,286,0.0,0.0,33,0.00,CLR,,0.00,WeatherDisplay:10.37,2013-06-16 07:00:00,
2013-06-16 00:05:00,67.9,37.7,29.94,WNW,286,2.3,2.3,33,0.00,CLR,,0.00,WeatherDisplay:10.37,2013-06-16 07:05:00,
2013-06-16 00:10:00,67.5,38.1,29.94,SSW,194,3.5,3.5,34,0.00,CLR,,0.00,WeatherDisplay:10.37,2013-06-16 07:10:00,
2013-06-16 00:15:00,67.9,36.1,29.94,SSW,205,5.8,5.8,31,0.00,CLR,,0.00,WeatherDisplay:10.37,2013-06-16 07:15:00,
2013-06-16 00:20:00,68.4,36.6,29.94,SSW,206,2.0,2.0,31,0.00,CLR,,0.00,WeatherDisplay:10.37,2013-06-16 07:20:00,
2013-06-16 00:25:00,68.3,36.5,29.94,SSW,205,0.0,0.0,31,0.00,CLR,,0.00,WeatherDisplay:10.37,2013-06-16 07:25:00,
2013-06-16 00:30:00,68.0,36.2,29.94,SSW,205,0.0,0.0,31,0.00,CLR,,0.00,WeatherDisplay:10.37,2013-06-16 07:30:00,
2013-06-16 00:35:00,67.6,35.9,29.94,SSW,206,0.0,0.0,31,0.00,CLR,,0.00,WeatherDisplay:10.37,2013-06-16 07:35:00,
2013-06-16 00:40:00,67.4,35.7,29.94,SSW,200,2.3,2.3,31,0.00,CLR,,0.00,WeatherDisplay:10.37,2013-06-16 07:40:00,
2013-06-16 00:45:00,67.2,35.5,29.94,SSW,200,0.0,0.0,31,0.00,CLR,,0.00,WeatherDisplay:10.37,2013-06-16 07:45:00,
2013-06-16 00:50:00,67.2,35.5,29.94,SSW,199,0.0,0.0,31,0.00,CLR,,0.00,WeatherDisplay:10.37,2013-06-16 07:50:00,
2013-06-16 00:55:00,67.0,35.3,29.94,SSW,200,0.0,0.0,31,0.00,CLR,,0.00,WeatherDisplay:10.37,2013-06-16 07:55:00,
2013-06-16 01:00:00,66.7,34.3,29.94,SSW,199,3.5,3.5,30,0.00,CLR,,0.00,WeatherDisplay:10.37,2013-06-16 08:00:00,
2013-06-16 01:05:00,66.3,34.7,29.94,SSW,199,0.0,0.0,31,0.00,CLR,,0.00,WeatherDisplay:10.37,2013-06-16 08:05:00,
2013-06-16 01:10:00,65.9,34.4,29.94,SSW,200,0.0,0.0,31,0.00,CLR,,0.00,WeatherDisplay:10.37,2013-06-16 08:10:00,
2013-06-16 01:15:00,65.7,34.2,29.94,SSW,200,0.0,0.0,31,0.00,CLR,,0.00,WeatherDisplay:10.37,2013-06-16 08:15:00,
2013-06-16 01:20:00,66.2,33.8,29.94,SSW,200,0.0,0.0,30,0.00,CLR,,0.00,WeatherDisplay:10.37,2013-06-16 08:20:00,
2013-06-16 01:25:00,67.0,33.7,29.94,SSW,194,5.8,5.8,29,0.00,CLR,,0.00,WeatherDisplay:10.37,2013-06-16 08:25:00,
2013-06-16 01:30:00,67.4,34.0,29.94,SSW,194,3.5,3.5,29,0.00,CLR,,0.00,WeatherDisplay:10.37,2013-06-16 08:30:00,
2013-06-16 01:35:00,67.2,33.8,29.94,SSE,159,6.9,6.9,29,0.00,CLR,,0.00,WeatherDisplay:10.37,2013-06-16 08:35:00,
2013-06-16 01:40:00,67.4,34.9,29.94,SSE,159,6.9,6.9,30,0.00,CLR,,0.00,WeatherDisplay:10.37,2013-06-16 08:40:00,
2013-06-16 01:45:00,67.0,34.5,29.94,SSE,156,0.0,0.0,30,0.00,CLR,,0.00,WeatherDisplay:10.37,2013-06-16 08:45:00,
2013-06-16 01:50:00,67.4,34.0,29.94,WSW,240,11.5,11.5,29,0.00,CLR,,0.00,WeatherDisplay:10.37,2013-06-16 08:50:00,
2013-06-16 01:55:00,68.2,33.8,29.94,SSW,200,5.8,5.8,28,0.00,CLR,,0.00,WeatherDisplay:10.37,2013-06-16 08:55:00,
2013-06-16 02:00:00,68.1,33.7,29.94,SW,233,4.6,4.6,28,0.00,CLR,,0.00,WeatherDisplay:10.37,2013-06-16 09:00:00,
2013-06-16 02:05:00,67.7,33.4,29.94,SW,233,3.5,3.5,28,0.00,CLR,,0.00,WeatherDisplay:10.37,2013-06-16 09:05:00,
2013-06-16 02:10:00,67.3,33.1,29.94,West,266,4.6,4.6,28,0.00,CLR,,0.00,WeatherDisplay:10.37,2013-06-16 09:10:00,
2013-06-16 02:15:00,67.6,33.3,29.94,West,260,7.0,7.0,28,0.00,CLR,,0.00,WeatherDisplay:10.37,2013-06-16 09:15:00,
2013-06-16 02:20:00,67.6,34.2,29.94,West,261,6.9,6.9,29,0.00,CLR,,0.00,WeatherDisplay:10.37,2013-06-16 09:20:00,
2013-06-16 02:25:00,67.6,34.2,29.94,West,277,4.6,4.6,29,0.00,CLR,,0.00,WeatherDisplay:10.37,2013-06-16 09:25:00,
2013-06-16 02:30:00,67.6,34.2,29.94,West,265,3.5,3.5,29,0.00,CLR,,0.00,WeatherDisplay:10.37,2013-06-16 09:30:00,
2013-06-16 02:35:00,67.4,34.9,29.94,West,265,0.0,0.0,30,0.00,CLR,,0.00,WeatherDisplay:10.37,2013-06-16 09:35:00,
2013-06-16 02:40:00,67.1,34.6,29.94,West,265,1.1,0.0,30,0.00,CLR,,0.00,WeatherDisplay:10.37,2013-06-16 09:40:00,
2013-06-16 02:45:00,66.8,34.3,29.94,WNW,302,4.6,4.6,30,0.00,CLR,,0.00,WeatherDisplay:10.37,2013-06-16 09:45:00,
2013-06-16 02:50:00,66.8,35.2,29.93,SSE,168,5.8,5.8,31,0.00,CLR,,0.00,WeatherDisplay:10.37,2013-06-16 09:50:00,
2013-06-16 02:55:00,66.8,34.3,29.94,NNE,30,3.5,3.5,30,0.00,CLR,,0.00,WeatherDisplay:10.37,2013-06-16 09:55:00,
2013-06-16 03:00:00,67.0,34.5,29.93,SSW,210,3.5,3.5,30,0.00,CLR,,0.00,WeatherDisplay:10.37,2013-06-16 10:00:00,
2013-06-16 03:05:00,66.7,34.3,29.94,SSW,210,2.0,2.0,30,0.00,CLR,,0.00,WeatherDisplay:10.37,2013-06-16 10:05:00,
2013-06-16 03:10:00,66.4,34.8,29.94,SSW,210,3.5,3.5,31,0.00,CLR,,0.00,WeatherDisplay:10.37,2013-06-16 10:10:00,
2013-06-16 03:15:00,66.1,33.7,29.94,WSW,253,6.9,6.9,30,0.00,CLR,,0.00,WeatherDisplay:10.37,2013-06-16 10:15:00,
2013-06-16 03:20:00,66.3,33.9,29.94,WSW,253,5.0,5.0,30,0.00,CLR,,0.00,WeatherDisplay:10.37,2013-06-16 10:20:00,
2013-06-16 03:25:00,66.4,34.0,29.94,WSW,248,3.5,3.5,30,0.00,CLR,,0.00,WeatherDisplay:10.37,2013-06-16 10:25:00,
2013-06-16 03:30:00,66.2,33.8,29.94,WSW,248,4.0,4.0,30,0.00,CLR,,0.00,WeatherDisplay:10.37,2013-06-16 10:30:00,
2013-06-16 03:35:00,65.9,33.6,29.94,WSW,248,3.5,3.5,30,0.00,CLR,,0.00,WeatherDisplay:10.37,2013-06-16 10:35:00,
2013-06-16 03:40:00,65.8,34.3,29.94,WSW,248,4.6,4.6,31,0.00,CLR,,0.00,WeatherDisplay:10.37,2013-06-16 10:40:00,
2013-06-16 03:45:00,65.8,34.3,29.94,SW,217,7.0,7.0,31,0.00,CLR,,0.00,WeatherDisplay:10.37,2013-06-16 10:45:00,
2013-06-16 03:50:00,65.8,34.3,29.94,SW,217,4.0,4.0,31,0.00,CLR,,0.00,WeatherDisplay:10.37,2013-06-16 10:50:00,
2013-06-16 03:55:00,65.6,34.1,29.94,SW,217,0.0,0.0,31,0.00,CLR,,0.00,WeatherDisplay:10.37,2013-06-16 10:55:00,
2013-06-16 04:00:00,65.5,34.0,29.94,SW,217,0.0,0.0,31,0.00,CLR,,0.00,WeatherDisplay:10.37,2013-06-16 11:00:00,
2013-06-16 04:05:00,66.1,34.6,29.94,SSW,197,6.9,6.9,31,0.00,CLR,,0.00,WeatherDisplay:10.37,2013-06-16 11:05:00,
2013-06-16 04:10:00,66.2,33.8,29.94,SSW,196,0.0,0.0,30,0.00,CLR,,0.00,WeatherDisplay:10.37,2013-06-16 11:10:00,
2013-06-16 04:15:00,65.8,34.3,29.94,SSW,197,4.0,4.0,31,0.00,CLR,,0.00,WeatherDisplay:10.37,2013-06-16 11:15:00,
2013-06-16 04:20:00,65.4,34.0,29.94,SSW,197,5.8,5.8,31,0.00,CLR,,0.00,WeatherDisplay:10.37,2013-06-16 11:20:00,
2013-06-16 04:25:00,65.1,34.5,29.94,SSW,196,3.5,3.5,32,0.00,CLR,,0.00,WeatherDisplay:10.37,2013-06-16 11:25:00,
2013-06-16 04:30:00,65.2,33.8,29.94,West,277,9.2,9.2,31,0.00,CLR,,0.00,WeatherDisplay:10.37,2013-06-16 11:30:00,
2013-06-16 04:35:00,65.0,33.6,29.95,WSW,246,4.6,4.6,31,0.00,CLR,,0.00,WeatherDisplay:10.37,2013-06-16 11:35:00,
2013-06-16 04:40:00,64.8,34.2,29.95,WSW,246,2.3,2.3,32,0.00,CLR,,0.00,WeatherDisplay:10.37,2013-06-16 11:40:00,
2013-06-16 04:45:00,64.7,34.1,29.95,WSW,245,1.1,1.1,32,0.00,CLR,,0.00,WeatherDisplay:10.37,2013-06-16 11:45:00,
2013-06-16 04:50:00,64.7,34.1,29.95,WSW,245,2.3,2.3,32,0.00,CLR,,0.00,WeatherDisplay:10.37,2013-06-16 11:50:00,
2013-06-16 04:55:00,64.6,34.8,29.94,WSW,242,2.3,2.3,33,0.00,CLR,,0.00,WeatherDisplay:10.37,2013-06-16 11:55:00,
2013-06-16 05:00:00,64.5,34.7,29.95,WSW,242,0.0,0.0,33,0.00,CLR,,0.00,WeatherDisplay:10.37,2013-06-16 12:00:00,
2013-06-16 05:05:00,64.5,35.5,29.95,SW,234,4.0,4.0,34,0.00,CLR,,0.00,WeatherDisplay:10.37,2013-06-16 12:05:00,
2013-06-16 05:10:00,64.3,35.3,29.95,SW,235,3.5,3.5,34,0.00,CLR,,0.00,WeatherDisplay:10.37,2013-06-16 12:10:00,
2013-06-16 05:15:00,63.9,35.7,29.95,SW,235,3.5,3.5,35,0.00,CLR,,0.00,WeatherDisplay:10.37,2013-06-16 12:15:00,
2013-06-16 05:20:00,63.8,35.6,29.95,SW,235,3.5,3.5,35,0.00,CLR,,0.00,WeatherDisplay:10.37,2013-06-16 12:20:00,
2013-06-16 05:25:00,63.5,35.3,29.95,SW,234,3.5,3.5,35,0.00,CLR,,0.00,WeatherDisplay:10.37,2013-06-16 12:25:00,
2013-06-16 05:30:00,63.3,35.2,29.96,SW,235,3.5,3.5,35,0.00,CLR,,0.00,WeatherDisplay:10.37,2013-06-16 12:30:00,
2013-06-16 05:35:00,63.0,34.9,29.96,SW,235,2.3,2.3,35,0.00,CLR,,0.00,WeatherDisplay:10.37,2013-06-16 12:35:00,
2013-06-16 05:40:00,62.7,36.0,29.96,SW,234,3.5,3.5,37,0.00,CLR,,0.00,WeatherDisplay:10.37,2013-06-16 12:40:00,
2013-06-16 05:45:00,63.1,37.1,29.96,West,270,4.0,4.0,38,0.00,CLR,,0.00,WeatherDisplay:10.37,2013-06-16 12:45:00,
2013-06-16 05:50:00,63.2,36.5,29.96,West,270,3.5,3.5,37,0.00,CLR,,0.00,WeatherDisplay:10.37,2013-06-16 12:50:00,
2013-06-16 05:55:00,63.0,37.0,29.96,West,267,3.5,3.9,38,0.00,CLR,,0.00,WeatherDisplay:10.37,2013-06-16 12:55:00,
2013-06-16 06:00:00,62.7,36.0,29.96,West,263,3.5,3.5,37,0.00,CLR,,0.00,WeatherDisplay:10.37,2013-06-16 13:00:00,
2013-06-16 06:05:00,62.5,35.9,29.96,West,261,4.6,4.6,37,0.00,CLR,,0.00,WeatherDisplay:10.37,2013-06-16 13:05:00,
2013-06-16 06:10:00,62.7,36.0,29.97,West,271,6.0,6.0,37,0.00,CLR,,0.00,WeatherDisplay:10.37,2013-06-16 13:10:00,
2013-06-16 06:15:00,62.9,36.2,29.97,WNW,283,5.0,5.0,37,0.00,CLR,,0.00,WeatherDisplay:10.37,2013-06-16 13:15:00,
2013-06-16 06:20:00,63.3,36.6,29.97,West,265,5.8,5.8,37,0.00,CLR,,0.00,WeatherDisplay:10.37,2013-06-16 13:20:00,
2013-06-16 06:25:00,63.3,36.6,29.97,West,268,5.8,5.8,37,0.00,CLR,,0.00,WeatherDisplay:10.37,2013-06-16 13:25:00,
2013-06-16 06:30:00,63.6,37.5,29.97,West,262,6.9,6.9,38,0.00,CLR,,0.00,WeatherDisplay:10.37,2013-06-16 13:30:00,
2013-06-16 06:35:00,63.9,38.4,29.97,WNW,285,7.0,7.0,39,0.00,CLR,,0.00,WeatherDisplay:10.37,2013-06-16 13:35:00,
2013-06-16 06:40:00,64.1,38.0,29.97,West,269,5.0,5.0,38,0.00,CLR,,0.00,WeatherDisplay:10.37,2013-06-16 13:40:00,
2013-06-16 06:45:00,64.5,39.0,29.97,WNW,287,5.0,5.0,39,0.00,CLR,,0.00,WeatherDisplay:10.37,2013-06-16 13:45:00,
2013-06-16 06:50:00,64.8,39.2,29.97,WSW,254,6.0,6.0,39,0.00,CLR,,0.00,WeatherDisplay:10.37,2013-06-16 13:50:00,
2013-06-16 06:55:00,65.1,39.5,29.97,West,262,4.6,4.6,39,0.00,CLR,,0.00,WeatherDisplay:10.37,2013-06-16 13:55:00,
2013-06-16 07:00:00,65.5,39.9,29.97,West,261,11.5,11.5,39,0.00,CLR,,0.00,WeatherDisplay:10.37,2013-06-16 14:00:00,
2013-06-16 07:05:00,65.8,38.8,29.97,West,268,6.9,6.9,37,0.00,CLR,,0.00,WeatherDisplay:10.37,2013-06-16 14:05:00,
2013-06-16 07:10:00,66.1,38.4,29.97,West,267,4.6,4.6,36,0.00,CLR,,0.00,WeatherDisplay:10.37,2013-06-16 14:10:00,
2013-06-16 07:15:00,66.5,39.4,29.98,WSW,257,2.3,2.3,37,0.00,CLR,,0.00,WeatherDisplay:10.37,2013-06-16 14:15:00,
2013-06-16 07:20:00,66.9,38.3,29.98,WSW,257,3.5,3.5,35,0.00,CLR,,0.00,WeatherDisplay:10.37,2013-06-16 14:20:00,
2013-06-16 07:25:00,67.3,38.0,29.98,WSW,253,3.5,3.5,34,0.00,CLR,,0.00,WeatherDisplay:10.37,2013-06-16 14:25:00,
2013-06-16 07:30:00,67.7,38.3,29.98,West,271,8.1,8.1,34,0.00,CLR,,0.00,WeatherDisplay:10.37,2013-06-16 14:30:00,
2013-06-16 07:35:00,68.1,37.9,29.98,WSW,257,6.9,6.9,33,0.00,CLR,,0.00,WeatherDisplay:10.37,2013-06-16 14:35:00,
2013-06-16 07:40:00,68.4,38.9,29.98,West,263,5.8,5.8,34,0.00,CLR,,0.00,WeatherDisplay:10.37,2013-06-16 14:40:00,
2013-06-16 07:45:00,68.8,38.5,29.99,WSW,257,11.5,11.5,33,0.00,CLR,,0.00,WeatherDisplay:10.37,2013-06-16 14:45:00,
2013-06-16 07:50:00,69.5,39.1,29.99,West,259,5.0,5.0,33,0.00,CLR,,0.00,WeatherDisplay:10.37,2013-06-16 14:50:00,
2013-06-16 07:55:00,70.1,38.9,29.99,West,270,5.8,5.8,32,0.00,CLR,,0.00,WeatherDisplay:10.37,2013-06-16 14:55:00,
2013-06-16 08:00:00,70.7,38.6,29.99,WNW,292,6.9,6.9,31,0.00,CLR,,0.00,WeatherDisplay:10.37,2013-06-16 15:00:00,
2013-06-16 08:05:00,71.3,39.1,29.99,WNW,291,3.5,3.5,31,0.00,CLR,,0.00,WeatherDisplay:10.37,2013-06-16 15:05:00,
2013-06-16 08:10:00,72.6,40.2,29.99,WSW,257,10.4,10.4,31,0.00,CLR,,0.00,WeatherDisplay:10.37,2013-06-16 15:10:00,
2013-06-16 08:15:00,73.7,40.3,29.99,NW,310,4.6,4.6,30,0.00,CLR,,0.00,WeatherDisplay:10.37,2013-06-16 15:15:00,
2013-06-16 08:20:00,74.3,40.0,29.99,West,272,10.4,10.4,29,0.00,CLR,,0.00,WeatherDisplay:10.37,2013-06-16 15:20:00,
2013-06-16 08:25:00,75.5,40.1,29.99,West,271,10.4,10.4,28,0.00,CLR,,0.00,WeatherDisplay:10.37,2013-06-16 15:25:00,
2013-06-16 08:30:00,76.2,39.8,29.99,WSW,250,11.5,11.5,27,0.00,CLR,,0.00,WeatherDisplay:10.37,2013-06-16 15:30:00,
2013-06-16 08:35:00,76.9,39.4,29.99,SW,226,9.2,9.2,26,0.00,CLR,,0.00,WeatherDisplay:10.37,2013-06-16 15:35:00,
2013-06-16 08:40:00,77.4,39.8,29.99,SW,230,7.0,7.0,26,0.00,CLR,,0.00,WeatherDisplay:10.37,2013-06-16 15:40:00,
2013-06-16 08:45:00,77.9,40.2,29.99,SW,233,9.2,9.2,26,0.00,CLR,,0.00,WeatherDisplay:10.37,2013-06-16 15:45:00,
2013-06-16 08:50:00,78.7,39.9,29.99,WSW,257,6.9,6.9,25,0.00,CLR,,0.00,WeatherDisplay:10.37,2013-06-16 15:50:00,
2013-06-16 08:55:00,79.1,39.2,29.99,SW,233,10.4,10.4,24,0.00,CLR,,0.00,WeatherDisplay:10.37,2013-06-16 15:55:00,
2013-06-16 09:00:00,79.4,38.4,29.99,South,182,6.0,6.0,23,0.00,CLR,,0.00,WeatherDisplay:10.37,2013-06-16 16:00:00,
2013-06-16 09:05:00,79.7,38.6,30.00,South,187,5.8,5.8,23,0.00,CLR,,0.00,WeatherDisplay:10.37,2013-06-16 16:05:00,
2013-06-16 09:10:00,79.8,38.7,30.00,SSW,207,6.9,6.9,23,0.00,CLR,,0.00,WeatherDisplay:10.37,2013-06-16 16:10:00,
2013-06-16 09:15:00,79.8,38.7,30.00,SSW,206,9.2,9.2,23,0.00,CLR,,0.00,WeatherDisplay:10.37,2013-06-16 16:15:00,
2013-06-16 09:20:00,80.3,38.0,30.00,SW,225,10.4,10.4,22,0.00,CLR,,0.00,WeatherDisplay:10.37,2013-06-16 16:20:00,
2013-06-16 09:25:00,80.7,38.3,30.00,SSW,199,9.2,9.2,22,0.00,CLR,,0.00,WeatherDisplay:10.37,2013-06-16 16:25:00,
2013-06-16 09:30:00,81.2,38.7,30.00,WSW,255,6.9,6.9,22,0.00,CLR,,0.00,WeatherDisplay:10.37,2013-06-16 16:30:00,
2013-06-16 09:35:00,81.6,39.1,30.00,SW,227,11.5,11.5,22,0.00,CLR,,0.00,WeatherDisplay:10.37,2013-06-16 16:35:00,
2013-06-16 09:40:00,81.7,39.1,30.00,West,259,6.9,6.9,22,0.00,CLR,,0.00,WeatherDisplay:10.37,2013-06-16 16:40:00,
2013-06-16 09:45:00,82.3,39.6,30.00,SSW,197,4.6,4.6,22,0.00,CLR,,0.00,WeatherDisplay:10.37,2013-06-16 16:45:00,
2013-06-16 09:50:00,82.6,38.7,30.00,West,271,9.2,9.2,21,0.00,CLR,,0.00,WeatherDisplay:10.37,2013-06-16 16:50:00,
2013-06-16 09:55:00,83.0,39.0,30.00,South,190,5.0,5.0,21,0.00,CLR,,0.00,WeatherDisplay:10.37,2013-06-16 16:55:00,
2013-06-16 10:00:00,83.3,38.0,30.00,NW,313,5.8,5.8,20,0.00,CLR,,0.00,WeatherDisplay:10.37,2013-06-16 17:00:00,
2013-06-16 10:05:00,83.4,38.1,29.99,SSW,201,4.6,4.6,20,0.00,CLR,,0.00,WeatherDisplay:10.37,2013-06-16 17:05:00,
2013-06-16 10:10:00,83.8,37.1,29.99,SSW,193,16.1,16.1,19,0.00,CLR,,0.00,WeatherDisplay:10.37,2013-06-16 17:10:00,
2013-06-16 10:15:00,83.8,35.8,29.99,SW,227,13.8,13.8,18,0.00,CLR,,0.00,WeatherDisplay:10.37,2013-06-16 17:15:00,
2013-06-16 10:20:00,83.4,36.8,29.99,West,263,6.9,6.9,19,0.00,CLR,,0.00,WeatherDisplay:10.37,2013-06-16 17:20:00,
2013-06-16 10:25:00,84.6,35.0,29.99,West,274,19.6,19.6,17,0.00,CLR,,0.00,WeatherDisplay:10.37,2013-06-16 17:25:00,
2013-06-16 10:30:00,85.0,35.3,29.99,NW,323,19.6,19.6,17,0.00,CLR,,0.00,WeatherDisplay:10.37,2013-06-16 17:30:00,
2013-06-16 10:35:00,85.0,33.8,29.99,NNW,339,23.0,23.0,16,0.00,CLR,,0.00,WeatherDisplay:10.37,2013-06-16 17:35:00,
2013-06-16 10:40:00,84.9,35.2,29.99,NNW,336,21.0,21.0,17,0.00,CLR,,0.00,WeatherDisplay:10.37,2013-06-16 17:40:00,
2013-06-16 10:45:00,84.7,35.0,29.99,North,350,24.2,24.2,17,0.00,CLR,,0.00,WeatherDisplay:10.37,2013-06-16 17:45:00,
2013-06-16 10:50:00,84.8,35.1,29.99,NNW,331,27.6,27.6,17,0.00,CLR,,0.00,WeatherDisplay:10.37,2013-06-16 17:50:00,
2013-06-16 10:55:00,84.9,35.2,29.99,NNW,331,24.2,24.2,17,0.00,CLR,,0.00,WeatherDisplay:10.37,2013-06-16 17:55:00,
2013-06-16 11:00:00,85.2,35.5,29.98,NNW,344,25.3,25.3,17,0.00,CLR,,0.00,WeatherDisplay:10.37,2013-06-16 18:00:00,
2013-06-16 11:05:00,85.4,35.6,29.99,NNW,338,24.2,24.2,17,0.00,CLR,,0.00,WeatherDisplay:10.37,2013-06-16 18:05:00,
2013-06-16 11:10:00,85.5,35.7,29.99,NNW,332,24.2,24.2,17,0.00,CLR,,0.00,WeatherDisplay:10.37,2013-06-16 18:10:00,
2013-06-16 11:15:00,85.7,35.9,29.99,NNW,338,23.0,23.0,17,0.00,CLR,,0.00,WeatherDisplay:10.37,2013-06-16 18:15:00,
2013-06-16 11:20:00,85.8,35.9,29.98,NNW,341,26.5,26.5,17,0.00,CLR,,0.00,WeatherDisplay:10.37,2013-06-16 18:20:00,
2013-06-16 11:25:00,86.3,36.3,29.98,North,355,25.3,25.3,17,0.00,CLR,,0.00,WeatherDisplay:10.37,2013-06-16 18:25:00,
2013-06-16 11:30:00,86.4,36.4,29.98,NNW,342,24.2,24.2,17,0.00,CLR,,0.00,WeatherDisplay:10.37,2013-06-16 18:30:00,
2013-06-16 11:35:00,86.5,36.5,29.99,NNW,336,22.0,22.0,17,0.00,CLR,,0.00,WeatherDisplay:10.37,2013-06-16 18:35:00,
2013-06-16 11:40:00,86.3,36.3,29.99,NNW,338,21.9,21.9,17,0.00,CLR,,0.00,WeatherDisplay:10.37,2013-06-16 18:40:00,
2013-06-16 11:45:00,86.1,36.2,29.98,North,355,21.9,21.9,17,0.00,CLR,,0.00,WeatherDisplay:10.37,2013-06-16 18:45:00,
2013-06-16 11:50:00,87.2,37.1,29.98,NNW,329,17.3,17.3,17,0.00,CLR,,0.00,WeatherDisplay:10.37,2013-06-16 18:50:00,
2013-06-16 11:55:00,87.9,34.5,29.99,West,267,18.4,18.4,15,0.00,CLR,,0.00,WeatherDisplay:10.37,2013-06-16 18:55:00,
2013-06-16 12:00:00,87.6,35.9,29.99,WNW,288,7.0,7.0,16,0.00,CLR,,0.00,WeatherDisplay:10.37,2013-06-16 19:00:00,
2013-06-16 12:05:00,87.9,34.5,29.99,West,277,12.7,12.7,15,0.00,CLR,,0.00,WeatherDisplay:10.37,2013-06-16 19:05:00,
2013-06-16 12:10:00,87.9,36.1,29.98,WNW,300,16.1,16.1,16,0.00,CLR,,0.00,WeatherDisplay:10.37,2013-06-16 19:10:00,
2013-06-16 12:15:00,87.9,36.1,29.98,North,350,19.6,19.6,16,0.00,CLR,,0.00,WeatherDisplay:10.37,2013-06-16 19:15:00,
2013-06-16 12:20:00,87.8,37.6,29.98,NNW,347,23.0,23.0,17,0.00,CLR,,0.00,WeatherDisplay:10.37,2013-06-16 19:20:00,
2013-06-16 12:25:00,87.5,37.3,29.98,NW,325,18.0,18.0,17,0.00,CLR,,0.00,WeatherDisplay:10.37,2013-06-16 19:25:00,
2013-06-16 12:30:00,87.8,36.0,29.97,North,355,17.0,17.0,16,0.00,CLR,,0.00,WeatherDisplay:10.37,2013-06-16 19:30:00,
2013-06-16 12:35:00,89.0,37.0,29.98,NNW,342,19.6,19.6,16,0.00,CLR,,0.00,WeatherDisplay:10.37,2013-06-16 19:35:00,
2013-06-16 12:40:00,88.1,36.3,29.97,North,351,21.9,21.9,16,0.00,CLR,,0.00,WeatherDisplay:10.37,2013-06-16 19:40:00,
2013-06-16 12:45:00,88.4,36.5,29.97,NNW,327,16.1,16.1,16,0.00,CLR,,0.00,WeatherDisplay:10.37,2013-06-16 19:45:00,
2013-06-16 12:50:00,88.1,36.3,29.97,North,355,18.4,18.4,16,0.00,CLR,,0.00,WeatherDisplay:10.37,2013-06-16 19:50:00,
2013-06-16 12:55:00,88.2,36.3,29.97,North,360,18.4,18.4,16,0.00,CLR,,0.00,WeatherDisplay:10.37,2013-06-16 19:55:00,
2013-06-16 13:00:00,88.4,36.5,29.96,NNW,328,18.0,18.0,16,0.00,CLR,,0.00,WeatherDisplay:10.37,2013-06-16 20:00:00,
2013-06-16 13:05:00,88.4,38.0,29.97,North,11,13.8,13.8,17,0.00,CLR,,0.00,WeatherDisplay:10.37,2013-06-16 20:05:00,
2013-06-16 13:10:00,88.8,36.8,29.97,NW,326,15.0,15.0,16,0.00,CLR,,0.00,WeatherDisplay:10.37,2013-06-16 20:10:00,
2013-06-16 13:15:00,89.1,37.1,29.97,NNW,327,21.0,21.0,16,0.00,CLR,,0.00,WeatherDisplay:10.37,2013-06-16 20:15:00,
2013-06-16 13:20:00,88.9,35.3,29.97,NNW,344,19.6,19.6,15,0.00,CLR,,0.00,WeatherDisplay:10.37,2013-06-16 20:20:00,
2013-06-16 13:25:00,89.9,36.1,29.96,NNW,348,16.1,16.1,15,0.00,CLR,,0.00,WeatherDisplay:10.37,2013-06-16 20:25:00,
2013-06-16 13:30:00,90.2,37.9,29.96,NNW,346,12.7,12.7,16,0.00,CLR,,0.00,WeatherDisplay:10.37,2013-06-16 20:30:00,
2013-06-16 13:35:00,90.1,36.2,29.96,NW,309,16.1,16.1,15,0.00,CLR,,0.00,WeatherDisplay:10.37,2013-06-16 20:35:00,
2013-06-16 13:40:00,89.8,36.0,29.96,NW,313,19.6,19.6,15,0.00,CLR,,0.00,WeatherDisplay:10.37,2013-06-16 20:40:00,
2013-06-16 13:45:00,89.0,35.3,29.96,West,264,12.7,12.7,15,0.00,CLR,,0.00,WeatherDisplay:10.37,2013-06-16 20:45:00,
2013-06-16 13:50:00,89.9,34.3,29.95,East,82,12.7,12.7,14,0.00,CLR,,0.00,WeatherDisplay:10.37,2013-06-16 20:50:00,
2013-06-16 13:55:00,90.7,34.9,29.96,South,169,10.4,10.4,14,0.00,CLR,,0.00,WeatherDisplay:10.37,2013-06-16 20:55:00,
2013-06-16 14:00:00,91.4,35.5,29.95,South,169,5.8,5.8,14,0.00,CLR,,0.00,WeatherDisplay:10.37,2013-06-16 21:00:00,
2013-06-16 14:05:00,91.6,37.4,29.95,NW,319,16.0,16.0,15,0.00,CLR,,0.00,WeatherDisplay:10.37,2013-06-16 21:05:00,
2013-06-16 14:10:00,90.7,34.9,29.95,NNW,329,15.0,15.0,14,0.00,CLR,,0.00,WeatherDisplay:10.37,2013-06-16 21:10:00,
2013-06-16 14:15:00,90.2,36.3,29.95,WNW,293,16.1,16.1,15,0.00,CLR,,0.00,WeatherDisplay:10.37,2013-06-16 21:15:00,
2013-06-16 14:20:00,90.2,36.3,29.95,NNW,329,15.0,15.0,15,0.00,CLR,,0.00,WeatherDisplay:10.37,2013-06-16 21:20:00,
2013-06-16 14:25:00,91.2,37.1,29.95,NNW,330,14.0,14.0,15,0.00,CLR,,0.00,WeatherDisplay:10.37,2013-06-16 21:25:00,
2013-06-16 14:30:00,91.2,35.3,29.95,NNW,342,25.3,25.3,14,0.00,CLR,,0.00,WeatherDisplay:10.37,2013-06-16 21:30:00,
2013-06-16 14:35:00,90.7,34.9,29.94,NNW,336,18.4,18.4,14,0.00,CLR,,0.00,WeatherDisplay:10.37,2013-06-16 21:35:00,
2013-06-16 14:40:00,90.8,35.0,29.94,NW,326,16.1,16.1,14,0.00,CLR,,0.00,WeatherDisplay:10.37,2013-06-16 21:40:00,
2013-06-16 14:45:00,90.9,35.1,29.94,North,350,18.4,18.4,14,0.00,CLR,,0.00,WeatherDisplay:10.37,2013-06-16 21:45:00,
2013-06-16 14:50:00,91.0,35.2,29.94,North,355,19.0,19.0,14,0.00,CLR,,0.00,WeatherDisplay:10.37,2013-06-16 21:50:00,
2013-06-16 14:55:00,91.3,35.4,29.95,NNW,332,23.0,23.0,14,0.00,CLR,,0.00,WeatherDisplay:10.37,2013-06-16 21:55:00,
2013-06-16 15:00:00,90.9,36.8,29.95,WNW,294,20.0,20.0,15,0.00,CLR,,0.00,WeatherDisplay:10.37,2013-06-16 22:00:00,
2013-06-16 15:05:00,91.8,35.8,29.94,WNW,298,19.6,19.6,14,0.00,CLR,,0.00,WeatherDisplay:10.37,2013-06-16 22:05:00,
2013-06-16 15:10:00,91.6,37.4,29.95,NW,309,18.4,18.4,15,0.00,CLR,,0.00,WeatherDisplay:10.37,2013-06-16 22:10:00,
2013-06-16 15:15:00,91.1,35.3,29.95,WNW,286,17.0,17.0,14,0.00,CLR,,0.00,WeatherDisplay:10.37,2013-06-16 22:15:00,
2013-06-16 15:20:00,91.2,35.3,29.95,West,269,17.3,17.3,14,0.00,CLR,,0.00,WeatherDisplay:10.37,2013-06-16 22:20:00,
2013-06-16 15:25:00,91.3,35.4,29.94,WSW,248,13.8,13.8,14,0.00,CLR,,0.00,WeatherDisplay:10.37,2013-06-16 22:25:00,
2013-06-16 15:30:00,91.5,33.7,29.95,WSW,247,16.1,16.1,13,0.00,CLR,,0.00,WeatherDisplay:10.37,2013-06-16 22:30:00,
2013-06-16 15:35:00,90.9,33.2,29.95,SW,236,11.5,11.5,13,0.00,CLR,,0.00,WeatherDisplay:10.37,2013-06-16 22:35:00,
2013-06-16 15:40:00,91.4,33.6,29.95,SW,229,16.1,16.1,13,0.00,CLR,,0.00,WeatherDisplay:10.37,2013-06-16 22:40:00,
2013-06-16 15:45:00,91.7,31.9,29.95,West,269,17.3,17.3,12,0.00,CLR,,0.00,WeatherDisplay:10.37,2013-06-16 22:45:00,
2013-06-16 15:50:00,91.6,31.8,29.95,WSW,254,16.1,16.1,12,0.00,CLR,,0.00,WeatherDisplay:10.37,2013-06-16 22:50:00,
2013-06-16 15:55:00,91.2,33.5,29.95,West,259,19.6,19.6,13,0.00,CLR,,0.00,WeatherDisplay:10.37,2013-06-16 22:55:00,
2013-06-16 16:00:00,91.3,31.6,29.95,West,275,17.0,17.0,12,0.00,CLR,,0.00,WeatherDisplay:10.37,2013-06-16 23:00:00,
2013-06-16 16:05:00,91.5,31.7,29.95,West,272,17.3,17.3,12,0.00,CLR,,0.00,WeatherDisplay:10.37,2013-06-16 23:05:00,
2013-06-16 16:10:00,91.9,32.0,29.95,WSW,248,19.6,19.6,12,0.00,CLR,,0.00,WeatherDisplay:10.37,2013-06-16 23:10:00,
2013-06-16 16:15:00,91.4,35.5,29.95,WNW,294,18.4,18.4,14,0.00,CLR,,0.00,WeatherDisplay:10.37,2013-06-16 23:15:00,
2013-06-16 16:20:00,90.9,31.3,29.95,West,271,17.3,17.3,12,0.00,CLR,,0.00,WeatherDisplay:10.37,2013-06-16 23:20:00,
2013-06-16 16:25:00,91.5,31.7,29.95,West,261,15.0,15.0,12,0.00,CLR,,0.00,WeatherDisplay:10.37,2013-06-16 23:25:00,
2013-06-16 16:30:00,91.1,29.3,29.95,West,280,16.1,16.1,11,0.00,CLR,,0.00,WeatherDisplay:10.37,2013-06-16 23:30:00,
2013-06-16 16:35:00,91.1,31.4,29.95,WSW,256,18.4,18.4,12,0.00,CLR,,0.00,WeatherDisplay:10.37,2013-06-16 23:35:00,
2013-06-16 16:40:00,90.6,31.0,29.95,WNW,288,16.1,16.9,12,0.00,CLR,,0.00,WeatherDisplay:10.37,2013-06-16 23:40:00,
2013-06-16 16:45:00,90.8,31.2,29.95,West,263,13.8,13.8,12,0.00,CLR,,0.00,WeatherDisplay:10.37,2013-06-16 23:45:00,
2013-06-16 16:50:00,90.6,33.0,29.95,NW,323,19.6,19.6,13,0.00,CLR,,0.00,WeatherDisplay:10.37,2013-06-16 23:50:00,
2013-06-16 16:55:00,90.4,32.9,29.95,NW,316,15.0,15.0,13,0.00,CLR,,0.00,WeatherDisplay:10.37,2013-06-16 23:55:00,
2013-06-16 17:00:00,89.9,32.5,29.95,NW,319,19.6,19.6,13,0.00,CLR,,0.00,WeatherDisplay:10.37,2013-06-17 00:00:00,
2013-06-16 17:05:00,89.5,34.0,29.94,WSW,250,11.5,11.5,14,0.00,CLR,,0.00,WeatherDisplay:10.37,2013-06-17 00:05:00,
2013-06-16 17:10:00,89.8,36.0,29.94,NW,319,17.3,17.3,15,0.00,CLR,,0.00,WeatherDisplay:10.37,2013-06-17 00:10:00,
2013-06-16 17:15:00,88.9,35.3,29.94,NNW,327,23.0,23.0,15,0.00,CLR,,0.00,WeatherDisplay:10.37,2013-06-17 00:15:00,
2013-06-16 17:20:00,88.5,34.9,29.94,NW,320,17.3,17.3,15,0.00,CLR,,0.00,WeatherDisplay:10.37,2013-06-17 00:20:00,
2013-06-16 17:25:00,88.9,35.3,29.94,North,355,15.0,15.0,15,0.00,CLR,,0.00,WeatherDisplay:10.37,2013-06-17 00:25:00,
2013-06-16 17:30:00,88.1,36.3,29.94,NW,306,16.1,16.1,16,0.00,CLR,,0.00,WeatherDisplay:10.37,2013-06-17 00:30:00,
2013-06-16 17:35:00,88.4,34.9,29.94,NNW,337,19.6,19.6,15,0.00,CLR,,0.00,WeatherDisplay:10.37,2013-06-17 00:35:00,
2013-06-16 17:40:00,87.6,35.9,29.94,NW,304,19.6,19.6,16,0.00,CLR,,0.00,WeatherDisplay:10.37,2013-06-17 00:40:00,
2013-06-16 17:45:00,87.3,35.6,29.94,NNW,338,19.6,19.6,16,0.00,CLR,,0.00,WeatherDisplay:10.37,2013-06-17 00:45:00,
2013-06-16 17:50:00,86.9,35.3,29.94,NW,314,23.0,23.0,16,0.00,CLR,,0.00,WeatherDisplay:10.37,2013-06-17 00:50:00,
2013-06-16 17:55:00,86.6,36.6,29.94,NNW,331,16.1,16.1,17,0.00,CLR,,0.00,WeatherDisplay:10.37,2013-06-17 00:55:00,
2013-06-16 18:00:00,86.5,36.5,29.94,NNW,329,19.6,19.6,17,0.00,CLR,,0.00,WeatherDisplay:10.37,2013-06-17 01:00:00,
2013-06-16 18:05:00,86.2,36.3,29.95,NNW,331,23.0,23.0,17,0.00,CLR,,0.00,WeatherDisplay:10.37,2013-06-17 01:05:00,
2013-06-16 18:10:00,86.0,36.1,29.94,NNW,327,21.9,21.9,17,0.00,CLR,,0.00,WeatherDisplay:10.37,2013-06-17 01:10:00,
2013-06-16 18:15:00,85.8,35.9,29.94,NNW,334,21.9,21.9,17,0.00,CLR,,0.00,WeatherDisplay:10.37,2013-06-17 01:15:00,
2013-06-16 18:20:00,85.2,35.5,29.94,NNW,332,24.2,24.2,17,0.00,CLR,,0.00,WeatherDisplay:10.37,2013-06-17 01:20:00,
2013-06-16 18:25:00,85.1,35.4,29.95,North,360,25.3,25.3,17,0.00,CLR,,0.00,WeatherDisplay:10.37,2013-06-17 01:25:00,
2013-06-16 18:30:00,85.0,35.3,29.95,NW,322,19.6,19.6,17,0.00,CLR,,0.00,WeatherDisplay:10.37,2013-06-17 01:30:00,
2013-06-16 18:35:00,84.8,35.1,29.95,NNW,346,26.5,26.5,17,0.00,CLR,,0.00,WeatherDisplay:10.37,2013-06-17 01:35:00,
2013-06-16 18:40:00,84.6,35.0,29.95,NW,317,19.6,19.6,17,0.00,CLR,,0.00,WeatherDisplay:10.37,2013-06-17 01:40:00,
2013-06-16 18:45:00,84.5,34.9,29.95,NNW,328,19.6,19.6,17,0.00,CLR,,0.00,WeatherDisplay:10.37,2013-06-17 01:45:00,
2013-06-16 18:50:00,84.0,34.5,29.95,NNW,340,19.6,19.6,17,0.00,CLR,,0.00,WeatherDisplay:10.37,2013-06-17 01:50:00,
2013-06-16 18:55:00,83.8,34.3,29.95,NNW,330,19.6,19.6,17,0.00,CLR,,0.00,WeatherDisplay:10.37,2013-06-17 01:55:00,
2013-06-16 19:00:00,83.8,34.3,29.95,NNW,334,21.9,21.9,17,0.00,CLR,,0.00,WeatherDisplay:10.37,2013-06-17 02:00:00,
2013-06-16 19:05:00,83.6,34.2,29.95,NW,310,19.6,19.6,17,0.00,CLR,,0.00,WeatherDisplay:10.37,2013-06-17 02:05:00,
2013-06-16 19:10:00,83.3,33.9,29.95,NNW,334,21.9,21.9,17,0.00,CLR,,0.00,WeatherDisplay:10.37,2013-06-17 02:10:00,
2013-06-16 19:15:00,82.9,33.6,29.96,NNW,346,24.2,24.2,17,0.00,CLR,,0.00,WeatherDisplay:10.37,2013-06-17 02:15:00,
2013-06-16 19:20:00,82.6,33.4,29.96,NNW,336,20.7,20.7,17,0.00,CLR,,0.00,WeatherDisplay:10.37,2013-06-17 02:20:00,
2013-06-16 19:25:00,82.2,33.0,29.96,NW,319,19.6,19.6,17,0.00,CLR,,0.00,WeatherDisplay:10.37,2013-06-17 02:25:00,
2013-06-16 19:30:00,82.1,32.9,29.96,NNW,331,18.4,18.4,17,0.00,CLR,,0.00,WeatherDisplay:10.37,2013-06-17 02:30:00,
2013-06-16 19:35:00,81.9,32.8,29.96,NW,304,19.6,19.6,17,0.00,CLR,,0.00,WeatherDisplay:10.37,2013-06-17 02:35:00,
2013-06-16 19:40:00,81.8,32.7,29.96,NW,309,15.0,15.2,17,0.00,CLR,,0.00,WeatherDisplay:10.37,2013-06-17 02:40:00,
2013-06-16 19:45:00,81.5,32.5,29.97,NW,308,17.3,17.3,17,0.00,CLR,,0.00,WeatherDisplay:10.37,2013-06-17 02:45:00,
2013-06-16 19:50:00,81.2,32.2,29.97,WNW,294,18.4,18.4,17,0.00,CLR,,0.00,WeatherDisplay:10.37,2013-06-17 02:50:00,
2013-06-16 19:55:00,81.1,29.1,29.97,West,270,13.8,13.8,15,0.00,CLR,,0.00,WeatherDisplay:10.37,2013-06-17 02:55:00,
2013-06-16 20:00:00,81.2,29.1,29.97,West,265,17.3,17.3,15,0.00,CLR,,0.00,WeatherDisplay:10.37,2013-06-17 03:00:00,
2013-06-16 20:05:00,80.5,31.7,29.98,West,268,10.4,10.4,17,0.00,CLR,,0.00,WeatherDisplay:10.37,2013-06-17 03:05:00,
2013-06-16 20:10:00,79.8,31.1,29.97,West,259,11.5,11.5,17,0.00,CLR,,0.00,WeatherDisplay:10.37,2013-06-17 03:10:00,
2013-06-16 20:15:00,79.4,30.8,29.97,WSW,238,11.5,11.5,17,0.00,CLR,,0.00,WeatherDisplay:10.37,2013-06-17 03:15:00,
2013-06-16 20:20:00,79.1,30.5,29.97,West,275,11.5,11.5,17,0.00,CLR,,0.00,WeatherDisplay:10.37,2013-06-17 03:20:00,
2013-06-16 20:25:00,79.0,30.4,29.97,WSW,242,11.5,11.5,17,0.00,CLR,,0.00,WeatherDisplay:10.37,2013-06-17 03:25:00,
2013-06-16 20:30:00,78.2,33.8,29.97,SSW,202,10.4,10.4,20,0.00,CLR,,0.00,WeatherDisplay:10.37,2013-06-17 03:30:00,
2013-06-16 20:35:00,77.5,34.5,29.97,SSW,202,11.5,11.5,21,0.00,CLR,,0.00,WeatherDisplay:10.37,2013-06-17 03:35:00,
2013-06-16 20:40:00,77.6,33.3,29.97,SSW,203,12.7,12.7,20,0.00,CLR,,0.00,WeatherDisplay:10.37,2013-06-17 03:40:00,
2013-06-16 20:45:00,78.0,31.0,29.97,SSW,206,8.1,8.1,18,0.00,CLR,,0.00,WeatherDisplay:10.37,2013-06-17 03:45:00,
2013-06-16 20:50:00,77.9,33.6,29.97,SSW,207,5.8,5.8,20,0.00,CLR,,0.00,WeatherDisplay:10.37,2013-06-17 03:50:00,
2013-06-16 20:55:00,77.2,31.7,29.98,SSW,207,10.4,10.4,19,0.00,CLR,,0.00,WeatherDisplay:10.37,2013-06-17 03:55:00,
2013-06-16 21:00:00,76.9,34.0,29.98,SSW,207,5.0,5.0,21,0.00,CLR,,0.00,WeatherDisplay:10.37,2013-06-17 04:00:00,
2013-06-16 21:01:00,76.9,34.0,29.98,SSW,207,5.0,5.0,21,0.00,CLR,,0.00,WeatherDisplay:10.37,2013-06-17 04:01:00,
2013-06-16 21:02:00,76.5,34.8,29.98,SSW,207,6.9,6.9,22,0.00,CLR,,0.00,WeatherDisplay:10.37,2013-06-17 04:02:00,
2013-06-16 21:06:00,75.9,31.9,29.98,NW,323,9.2,9.2,20,0.00,CLR,,0.00,WeatherDisplay:10.37,2013-06-17 04:06:00,
2013-06-16 21:08:00,76.2,32.2,29.98,NW,304,6.0,6.0,20,0.00,CLR,,0.00,WeatherDisplay:10.37,2013-06-17 04:08:00,
2013-06-16 21:13:00,77.1,30.3,29.98,NNW,327,11.5,11.5,18,0.00,CLR,,0.00,WeatherDisplay:10.37,2013-06-17 04:13:00,
2013-06-16 21:18:00,77.1,32.9,29.98,SW,221,6.9,6.9,20,0.00,CLR,,0.00,WeatherDisplay:10.37,2013-06-17 04:18:00,
2013-06-16 21:23:00,75.8,35.3,29.98,SW,222,5.8,5.8,23,0.00,CLR,,0.00,WeatherDisplay:10.37,2013-06-17 04:23:00,
2013-06-16 21:28:00,74.5,35.3,29.99,SW,225,9.2,9.2,24,0.00,CLR,,0.00,WeatherDisplay:10.37,2013-06-17 04:28:00,
2013-06-16 21:33:00,73.7,34.6,29.99,West,275,9.2,9.2,24,0.00,CLR,,0.00,WeatherDisplay:10.37,2013-06-17 04:33:00,
2013-06-16 21:38:00,73.5,35.5,29.99,West,265,9.2,9.2,25,0.00,CLR,,0.00,WeatherDisplay:10.37,2013-06-17 04:38:00,
2013-06-16 21:43:00,73.4,36.4,29.99,West,263,4.6,4.6,26,0.00,CLR,,0.00,WeatherDisplay:10.37,2013-06-17 04:43:00,
2013-06-16 21:48:00,73.4,35.4,29.99,NW,309,6.0,6.0,25,0.00,CLR,,0.00,WeatherDisplay:10.37,2013-06-17 04:48:00,
2013-06-16 21:53:00,74.8,34.5,29.99,SSW,198,11.5,11.5,23,0.00,CLR,,0.00,WeatherDisplay:10.37,2013-06-17 04:53:00,
2013-06-16 21:58:00,75.3,32.6,29.99,SSW,198,6.9,6.9,21,0.00,CLR,,0.00,WeatherDisplay:10.37,2013-06-17 04:58:00,
2013-06-16 22:03:00,75.3,36.0,29.99,SSW,198,5.8,5.8,24,0.00,CLR,,0.00,WeatherDisplay:10.37,2013-06-17 05:03:00,
2013-06-16 22:08:00,75.1,34.8,29.99,SSW,198,3.5,3.5,23,0.00,CLR,,0.00,WeatherDisplay:10.37,2013-06-17 05:08:00,
2013-06-16 22:13:00,74.8,35.6,29.99,SSW,198,2.3,2.3,24,0.00,CLR,,0.00,WeatherDisplay:10.37,2013-06-17 05:13:00,
2013-06-16 22:18:00,74.0,34.9,29.99,SSW,198,4.0,4.0,24,0.00,CLR,,0.00,WeatherDisplay:10.37,2013-06-17 05:18:00,
2013-06-16 22:23:00,73.2,35.2,29.99,SSW,198,1.1,1.1,25,0.00,CLR,,0.00,WeatherDisplay:10.37,2013-06-17 05:23:00,
2013-06-16 22:28:00,72.7,35.8,29.99,SSW,198,3.5,3.5,26,0.00,CLR,,0.00,WeatherDisplay:10.37,2013-06-17 05:28:00,
2013-06-16 22:33:00,72.5,35.6,29.99,SSW,198,4.0,4.0,26,0.00,CLR,,0.00,WeatherDisplay:10.37,2013-06-17 05:33:00,
2013-06-16 22:38:00,72.9,36.0,29.99,SSW,198,2.3,2.3,26,0.00,CLR,,0.00,WeatherDisplay:10.37,2013-06-17 05:38:00,
2013-06-16 22:43:00,72.9,36.0,29.99,SSW,198,1.1,0.0,26,0.00,CLR,,0.00,WeatherDisplay:10.37,2013-06-17 05:43:00,
2013-06-16 22:48:00,72.6,35.7,29.99,SSW,198,0.0,0.0,26,0.00,CLR,,0.00,WeatherDisplay:10.37,2013-06-17 05:48:00,
2013-06-16 22:53:00,72.5,36.6,29.98,SSW,198,5.0,5.0,27,0.00,CLR,,0.00,WeatherDisplay:10.37,2013-06-17 05:53:00,
2013-06-16 22:58:00,72.4,36.5,29.99,SSW,198,0.0,0.0,27,0.00,CLR,,0.00,WeatherDisplay:10.37,2013-06-17 05:58:00,
2013-06-16 23:03:00,72.6,36.7,29.99,SSW,198,1.1,1.1,27,0.00,CLR,,0.00,WeatherDisplay:10.37,2013-06-17 06:03:00,
2013-06-16 23:08:00,73.0,31.9,29.99,SSW,198,0.0,0.0,22,0.00,CLR,,0.00,WeatherDisplay:10.37,2013-06-17 06:08:00,
2013-06-16 23:13:00,73.4,35.4,29.99,SSW,198,5.8,5.8,25,0.00,CLR,,0.00,WeatherDisplay:10.37,2013-06-17 06:13:00,
2013-06-16 23:18:00,72.6,35.7,29.99,South,176,5.0,5.0,26,0.00,CLR,,0.00,WeatherDisplay:10.37,2013-06-17 06:18:00,
2013-06-16 23:23:00,71.3,34.6,29.99,South,175,4.6,4.6,26,0.00,CLR,,0.00,WeatherDisplay:10.37,2013-06-17 06:23:00,
2013-06-16 23:28:00,70.5,33.9,29.99,South,175,4.6,4.6,26,0.00,CLR,,0.00,WeatherDisplay:10.37,2013-06-17 06:28:00,
2013-06-16 23:33:00,69.7,34.2,29.99,South,174,0.0,0.0,27,0.00,CLR,,0.00,WeatherDisplay:10.37,2013-06-17 06:33:00,
2013-06-16 23:38:00,69.6,34.1,29.99,ESE,106,3.5,3.5,27,0.00,CLR,,0.00,WeatherDisplay:10.37,2013-06-17 06:38:00,
2013-06-16 23:43:00,70.6,35.0,29.99,NNW,346,14.0,14.0,27,0.00,CLR,,0.00,WeatherDisplay:10.37,2013-06-17 06:43:00,
2013-06-16 23:48:00,74.9,37.7,29.98,North,355,27.6,27.6,26,0.00,CLR,,0.00,WeatherDisplay:10.37,2013-06-17 06:48:00,
2013-06-16 23:53:00,76.7,38.2,29.98,NNW,330,28.8,28.8,25,0.00,CLR,,0.00,WeatherDisplay:10.37,2013-06-17 06:53:00,
2013-06-16 23:58:00,77.1,38.6,29.97,NNW,331,29.9,29.9,25,0.00,CLR,,0.00,WeatherDisplay:10.37,2013-06-17 06:58:00,